createdAt,value
2023-04-24T00:02:23.411Z,17.30
2023-04-24T00:05:26.219Z,17.30
2023-04-24T00:08:28.342Z,17.30
2023-04-24T00:11:31.010Z,17.30
2023-04-24T00:14:33.434Z,17.20
2023-04-24T00:17:35.731Z,17.20
2023-04-24T00:20:37.903Z,17.10
2023-04-24T00:23:40.169Z,17.10
2023-04-24T00:26:42.403Z,17.20
2023-04-24T00:29:44.805Z,17.10
2023-04-24T00:32:47.442Z,17.20
2023-04-24T00:35:49.567Z,17.10
2023-04-24T00:38:51.655Z,17.10
2023-04-24T00:41:54.468Z,17.00
2023-04-24T00:44:58.863Z,17.00
2023-04-24T00:48:02.411Z,17.00
2023-04-24T00:51:04.603Z,17.00
2023-04-24T00:54:09.737Z,17.00
2023-04-24T00:57:12.223Z,17.00
2023-04-24T01:00:15.887Z,17.10
2023-04-24T01:03:19.686Z,17.10
2023-04-24T01:06:22.298Z,17.10
2023-04-24T01:09:25.494Z,17.10
2023-04-24T01:12:27.717Z,17.00
2023-04-24T01:15:29.778Z,16.90
2023-04-24T01:18:32.094Z,16.90
2023-04-24T01:21:38.318Z,16.90
2023-04-24T01:24:40.880Z,16.90
2023-04-24T01:27:43.090Z,16.90
2023-04-24T01:30:45.918Z,16.90
2023-04-24T01:33:48.748Z,16.90
2023-04-24T01:36:51.488Z,16.90
2023-04-24T01:39:53.692Z,16.90
2023-04-24T01:42:56.501Z,16.90
2023-04-24T01:45:58.771Z,16.90
2023-04-24T01:49:01.925Z,16.90
2023-04-24T01:52:04.120Z,16.90
2023-04-24T01:55:07.184Z,16.90
2023-04-24T01:58:09.388Z,16.90
2023-04-24T02:01:19.182Z,16.90
2023-04-24T02:04:21.411Z,16.80
2023-04-24T02:07:24.259Z,16.80
2023-04-24T02:10:26.592Z,16.80
2023-04-24T02:13:28.941Z,16.80
2023-04-24T02:16:34.383Z,16.70
2023-04-24T02:19:36.782Z,16.80
2023-04-24T02:22:38.885Z,16.80
2023-04-24T02:25:41.019Z,16.80
2023-04-24T02:28:43.103Z,16.80
2023-04-24T02:31:45.326Z,16.80
2023-04-24T02:34:47.466Z,16.80
2023-04-24T02:37:49.594Z,16.80
2023-04-24T02:40:51.670Z,16.70
2023-04-24T02:43:53.861Z,16.80
2023-04-24T02:46:55.960Z,16.70
2023-04-24T02:49:58.073Z,16.70
2023-04-24T02:53:00.186Z,16.70
2023-04-24T02:56:02.381Z,16.70
2023-04-24T02:59:04.658Z,16.70
2023-04-24T03:02:07.012Z,16.70
2023-04-24T03:05:10.488Z,16.70
2023-04-24T03:08:12.642Z,16.70
2023-04-24T03:11:14.711Z,16.60
2023-04-24T03:14:18.021Z,16.60
2023-04-24T03:17:20.146Z,16.60
2023-04-24T03:20:22.818Z,16.60
2023-04-24T03:23:24.960Z,16.60
2023-04-24T03:26:27.238Z,16.50
2023-04-24T03:29:30.401Z,16.50
2023-04-24T03:32:33.486Z,16.40
2023-04-24T03:35:35.688Z,16.50
2023-04-24T03:38:37.805Z,16.40
2023-04-24T03:41:39.911Z,16.40
2023-04-24T03:44:42.237Z,16.50
2023-04-24T03:47:44.395Z,16.40
2023-04-24T03:50:46.653Z,16.30
2023-04-24T03:53:48.925Z,16.30
2023-04-24T03:56:51.192Z,16.30
2023-04-24T03:59:54.643Z,16.30
2023-04-24T04:02:56.983Z,16.30
2023-04-24T04:05:59.330Z,16.30
2023-04-24T04:09:01.824Z,16.30
2023-04-24T04:12:04.104Z,16.30
2023-04-24T04:15:11.026Z,16.30
2023-04-24T04:18:14.125Z,16.30
2023-04-24T04:21:16.457Z,16.20
2023-04-24T04:24:18.719Z,16.20
2023-04-24T04:27:22.596Z,16.20
2023-04-24T04:30:24.874Z,16.20
2023-04-24T04:33:27.197Z,16.20
2023-04-24T04:36:30.526Z,16.30
2023-04-24T04:39:32.725Z,16.20
2023-04-24T04:42:35.351Z,16.20
2023-04-24T04:45:38.506Z,16.20
2023-04-24T04:48:41.499Z,16.20
2023-04-24T04:51:43.887Z,16.20
2023-04-24T04:54:46.043Z,16.20
2023-04-24T04:57:48.226Z,16.20
2023-04-24T05:00:50.625Z,16.10
2023-04-24T05:03:52.997Z,16.10
2023-04-24T05:06:55.418Z,16.20
2023-04-24T05:09:57.497Z,16.20
2023-04-24T05:12:59.560Z,16.20
2023-04-24T05:16:01.662Z,16.20
2023-04-24T05:19:03.903Z,16.20
2023-04-24T05:22:07.929Z,16.20
2023-04-24T05:25:10.267Z,16.20
2023-04-24T05:28:12.472Z,16.20
2023-04-24T05:31:14.800Z,16.20
2023-04-24T05:34:17.905Z,16.20
2023-04-24T05:37:20.058Z,16.20
2023-04-24T05:40:22.254Z,16.10
2023-04-24T05:43:24.434Z,16.10
2023-04-24T05:46:26.705Z,16.20
2023-04-24T05:49:28.780Z,16.20
2023-04-24T05:52:31.120Z,16.20
2023-04-24T05:55:33.299Z,16.20
2023-04-24T05:58:35.477Z,16.20
2023-04-24T06:01:38.294Z,16.20
2023-04-24T06:04:41.199Z,16.20
2023-04-24T06:07:43.590Z,16.20
2023-04-24T06:10:46.370Z,16.30
2023-04-24T06:13:48.517Z,16.40
2023-04-24T06:16:50.891Z,16.50
2023-04-24T06:19:53.047Z,16.60
2023-04-24T06:22:55.284Z,17.00
2023-04-24T06:25:57.425Z,17.30
2023-04-24T06:29:00.713Z,17.80
2023-04-24T06:32:02.806Z,18.40
2023-04-24T06:35:09.183Z,18.90
2023-04-24T06:38:11.350Z,19.50
2023-04-24T06:41:14.256Z,19.90
2023-04-24T06:44:16.671Z,20.40
2023-04-24T06:47:19.760Z,21.10
2023-04-24T06:50:22.053Z,21.60
2023-04-24T06:53:24.349Z,21.90
2023-04-24T06:56:27.850Z,22.00
2023-04-24T06:59:30.148Z,22.20
2023-04-24T07:02:32.348Z,22.80
2023-04-24T07:05:39.316Z,23.30
2023-04-24T07:08:43.153Z,24.00
2023-04-24T07:11:45.974Z,24.30
2023-04-24T07:14:48.182Z,24.40
2023-04-24T07:17:50.773Z,24.10
2023-04-24T07:20:53.155Z,24.80
2023-04-24T07:23:55.353Z,25.00
2023-04-24T07:26:58.109Z,25.20
2023-04-24T07:30:00.303Z,25.60
2023-04-24T07:33:02.582Z,26.00
2023-04-24T07:36:05.218Z,26.20
2023-04-24T07:39:07.417Z,26.60
2023-04-24T07:42:09.574Z,26.60
2023-04-24T07:45:11.727Z,26.30
2023-04-24T07:48:17.442Z,27.20
2023-04-24T07:51:19.558Z,27.50
2023-04-24T07:54:22.121Z,27.60
2023-04-24T07:57:24.339Z,27.90
2023-04-24T08:00:26.554Z,28.80
2023-04-24T08:03:28.924Z,29.00
2023-04-24T08:06:31.700Z,28.90
2023-04-24T08:09:34.037Z,29.50
2023-04-24T08:12:37.250Z,30.40
2023-04-24T08:15:39.509Z,30.80
2023-04-24T08:18:41.649Z,30.60
2023-04-24T08:21:47.246Z,30.40
2023-04-24T08:24:50.389Z,31.40
2023-04-24T08:27:53.068Z,31.60
2023-04-24T08:30:56.132Z,31.60
2023-04-24T08:33:58.369Z,32.20
2023-04-24T08:37:00.733Z,32.00
2023-04-24T08:40:26.236Z,32.30
2023-04-24T08:43:29.346Z,33.20
2023-04-24T08:46:32.394Z,33.80
2023-04-24T08:49:37.023Z,33.60
2023-04-24T08:52:39.165Z,32.70
2023-04-24T08:55:44.663Z,33.10
2023-04-24T08:58:47.860Z,33.40
2023-04-24T09:01:52.253Z,34.00
2023-04-24T09:04:56.523Z,33.50
2023-04-24T09:07:58.943Z,33.80
2023-04-24T09:11:03.913Z,34.30
2023-04-24T09:14:06.617Z,34.00
2023-04-24T09:17:09.325Z,34.50
2023-04-24T09:20:11.787Z,34.00
2023-04-24T09:23:19.315Z,33.70
2023-04-24T09:26:24.903Z,33.20
2023-04-24T09:29:27.122Z,33.20
2023-04-24T09:32:31.233Z,33.70
2023-04-24T09:35:33.928Z,33.50
2023-04-24T09:38:38.020Z,33.50
2023-04-24T09:42:02.393Z,33.80
2023-04-24T09:45:14.222Z,33.60
2023-04-24T09:48:17.877Z,34.10
2023-04-24T09:51:38.145Z,34.70
2023-04-24T09:54:41.123Z,35.00
2023-04-24T09:57:54.594Z,34.70
2023-04-24T10:00:58.064Z,34.10
2023-04-24T10:04:00.811Z,33.70
2023-04-24T10:07:07.912Z,33.70
2023-04-24T10:10:10.731Z,34.00
2023-04-24T10:13:15.417Z,34.70
2023-04-24T10:16:18.186Z,35.00
2023-04-24T10:19:21.273Z,35.50
2023-04-24T10:22:27.001Z,35.40
2023-04-24T10:25:31.517Z,35.20
2023-04-24T10:28:35.303Z,35.50
2023-04-24T10:31:39.568Z,35.30
2023-04-24T10:34:41.781Z,35.90
2023-04-24T10:37:56.449Z,35.60
2023-04-24T10:41:17.576Z,34.80
2023-04-24T10:44:23.319Z,34.50
2023-04-24T10:47:26.413Z,34.20
2023-04-24T10:50:31.476Z,33.80
2023-04-24T10:53:36.518Z,33.10
2023-04-24T10:56:40.774Z,33.00
2023-04-24T10:59:42.996Z,32.50
2023-04-24T11:02:51.664Z,32.70
2023-04-24T11:06:03.865Z,32.40
2023-04-24T11:09:16.661Z,32.50
2023-04-24T11:12:19.882Z,32.50
2023-04-24T11:15:22.726Z,32.80
2023-04-24T11:18:24.890Z,33.00
2023-04-24T11:21:27.496Z,33.40
2023-04-24T11:24:51.066Z,33.10
2023-04-24T11:28:05.680Z,32.40
2023-04-24T11:31:43.277Z,32.10
2023-04-24T11:34:50.243Z,31.40
2023-04-24T11:38:13.055Z,30.60
2023-04-24T11:41:16.730Z,29.70
2023-04-24T11:44:23.694Z,29.00
2023-04-24T11:47:34.964Z,28.30
2023-04-24T11:50:37.670Z,27.90
2023-04-24T11:53:40.035Z,27.70
2023-04-24T11:56:47.649Z,27.80
2023-04-24T11:59:50.390Z,27.90
2023-04-24T12:02:53.041Z,27.60
2023-04-24T12:06:09.288Z,27.60
2023-04-24T12:09:18.249Z,27.20
2023-04-24T12:12:21.258Z,26.90
2023-04-24T12:15:23.803Z,26.60
2023-04-24T12:18:27.024Z,26.50
2023-04-24T12:21:31.475Z,26.30
2023-04-24T12:24:33.698Z,25.90
2023-04-24T12:27:36.828Z,25.80
2023-04-24T12:30:47.319Z,26.00
2023-04-24T12:33:49.558Z,25.80
2023-04-24T12:36:51.916Z,25.80
2023-04-24T12:40:09.286Z,25.60
2023-04-24T12:43:21.712Z,25.80
2023-04-24T12:46:24.034Z,25.80
2023-04-24T12:49:26.191Z,25.90
2023-04-24T12:52:30.522Z,25.90
2023-04-24T12:55:32.638Z,25.90
2023-04-24T12:58:35.988Z,26.00
2023-04-24T13:01:38.210Z,26.20
2023-04-24T13:04:40.528Z,26.40
2023-04-24T13:07:42.690Z,26.40
2023-04-24T13:10:44.909Z,26.20
2023-04-24T13:13:47.018Z,26.20
2023-04-24T13:16:50.532Z,26.10
2023-04-24T13:19:53.195Z,26.00
2023-04-24T13:22:55.395Z,26.20
2023-04-24T13:25:59.524Z,26.30
2023-04-24T13:29:01.779Z,26.10
2023-04-24T13:32:05.358Z,26.00
2023-04-24T13:35:07.919Z,26.00
2023-04-24T13:38:12.954Z,26.10
2023-04-24T13:41:15.112Z,26.30
2023-04-24T13:44:19.760Z,26.20
2023-04-24T13:47:22.200Z,26.20
2023-04-24T13:50:24.551Z,26.20
2023-04-24T13:53:26.710Z,26.30
2023-04-24T13:56:28.892Z,26.50
2023-04-24T13:59:31.151Z,26.60
2023-04-24T14:02:33.783Z,26.80
2023-04-24T14:05:37.810Z,26.90
2023-04-24T14:08:41.319Z,27.10
2023-04-24T14:11:43.901Z,27.10
2023-04-24T14:14:46.129Z,27.00
2023-04-24T14:17:51.011Z,27.00
2023-04-24T14:20:53.172Z,27.10
2023-04-24T14:23:55.319Z,26.90
2023-04-24T14:26:57.584Z,26.90
2023-04-24T14:29:59.668Z,26.90
2023-04-24T14:33:01.799Z,27.20
2023-04-24T14:36:06.313Z,27.60
2023-04-24T14:39:08.745Z,27.80
2023-04-24T14:42:10.983Z,28.00
2023-04-24T14:45:13.337Z,28.00
2023-04-24T14:48:17.692Z,27.60
2023-04-24T14:51:19.836Z,27.50
2023-04-24T14:54:24.459Z,27.70
2023-04-24T14:57:27.336Z,27.80
2023-04-24T15:00:29.581Z,27.60
2023-04-24T15:03:32.231Z,27.70
2023-04-24T15:06:34.670Z,27.20
2023-04-24T15:09:36.796Z,27.40
2023-04-24T15:12:39.115Z,27.50
2023-04-24T15:15:41.771Z,27.60
2023-04-24T15:18:44.023Z,27.80
2023-04-24T15:21:46.117Z,27.90
2023-04-24T15:24:48.355Z,27.60
2023-04-24T15:27:50.664Z,27.60
2023-04-24T15:30:52.861Z,27.60
2023-04-24T15:33:54.900Z,27.50
2023-04-24T15:36:57.067Z,27.50
2023-04-24T15:40:00.817Z,27.50
2023-04-24T15:43:03.041Z,27.40
2023-04-24T15:46:05.801Z,27.20
2023-04-24T15:49:08.074Z,27.00
2023-04-24T15:52:11.141Z,26.90
2023-04-24T15:55:13.592Z,27.00
2023-04-24T15:58:15.880Z,26.90
2023-04-24T16:01:18.549Z,26.90
2023-04-24T16:04:20.978Z,26.80
2023-04-24T16:07:23.334Z,26.80
2023-04-24T16:10:25.963Z,26.70
2023-04-24T16:13:29.472Z,26.60
2023-04-24T16:16:32.033Z,26.50
2023-04-24T16:19:34.823Z,26.60
2023-04-24T16:22:36.975Z,26.60
2023-04-24T16:25:39.532Z,26.50
2023-04-24T16:28:43.481Z,26.50
2023-04-24T16:31:45.899Z,26.50
2023-04-24T16:34:48.151Z,26.40
2023-04-24T16:37:50.462Z,26.50
2023-04-24T16:40:52.624Z,26.40
2023-04-24T16:43:56.028Z,26.30
2023-04-24T16:46:58.699Z,26.30
2023-04-24T16:50:01.150Z,26.20
2023-04-24T16:53:03.636Z,26.10
2023-04-24T16:56:06.268Z,26.10
2023-04-24T16:59:08.880Z,26.00
2023-04-24T17:02:11.221Z,25.90
2023-04-24T17:05:13.406Z,25.80
2023-04-24T17:08:15.685Z,25.70
2023-04-24T17:11:17.833Z,25.70
2023-04-24T17:14:20.041Z,25.60
2023-04-24T17:17:23.414Z,25.70
2023-04-24T17:20:26.994Z,25.60
2023-04-24T17:23:31.348Z,25.50
2023-04-24T17:26:33.911Z,25.50
2023-04-24T17:29:36.091Z,25.40
2023-04-24T17:32:38.372Z,25.50
2023-04-24T17:35:40.593Z,25.40
2023-04-24T17:38:42.866Z,25.30
2023-04-24T17:41:44.975Z,25.10
2023-04-24T17:44:47.695Z,24.90
2023-04-24T17:47:51.683Z,24.80
2023-04-24T17:50:54.279Z,24.80
2023-04-24T17:53:56.602Z,24.70
2023-04-24T17:56:58.834Z,24.60
2023-04-24T18:00:00.966Z,24.50
2023-04-24T18:03:04.328Z,24.50
2023-04-24T18:06:06.834Z,24.30
2023-04-24T18:09:09.197Z,24.30
2023-04-24T18:12:11.536Z,24.10
2023-04-24T18:15:14.937Z,24.00
2023-04-24T18:18:18.310Z,24.00
2023-04-24T18:21:20.604Z,24.00
2023-04-24T18:24:22.730Z,23.90
2023-04-24T18:27:25.612Z,23.90
2023-04-24T18:30:28.438Z,23.70
2023-04-24T18:33:30.743Z,23.80
2023-04-24T18:36:33.360Z,23.70
2023-04-24T18:39:35.646Z,23.60
2023-04-24T18:42:37.861Z,23.60
2023-04-24T18:45:40.079Z,23.50
2023-04-24T18:48:42.241Z,23.50
2023-04-24T18:51:53.857Z,23.40
2023-04-24T18:54:56.806Z,23.40
2023-04-24T18:57:58.974Z,23.40
2023-04-24T19:01:01.318Z,23.30
2023-04-24T19:04:04.222Z,23.20
2023-04-24T19:07:06.486Z,23.10
2023-04-24T19:10:09.828Z,23.00
2023-04-24T19:13:12.600Z,23.00
2023-04-24T19:16:14.771Z,22.70
2023-04-24T19:19:16.980Z,22.60
2023-04-24T19:22:20.870Z,22.60
2023-04-24T19:25:23.222Z,22.40
2023-04-24T19:28:25.425Z,22.30
2023-04-24T19:31:27.942Z,22.30
2023-04-24T19:34:32.244Z,22.20
2023-04-24T19:37:35.490Z,22.20
2023-04-24T19:40:37.710Z,22.10
2023-04-24T19:43:42.389Z,22.00
2023-04-24T19:46:44.877Z,21.90
2023-04-24T19:49:47.173Z,21.90
2023-04-24T19:52:49.527Z,21.80
2023-04-24T19:55:51.820Z,21.80
2023-04-24T19:58:54.160Z,21.70
2023-04-24T20:01:56.336Z,21.70
2023-04-24T20:04:58.701Z,21.60
2023-04-24T20:08:00.922Z,21.60
2023-04-24T20:11:03.068Z,21.50
2023-04-24T20:14:05.598Z,21.50
2023-04-24T20:17:08.015Z,21.50
2023-04-24T20:20:13.513Z,21.50
2023-04-24T20:23:16.009Z,21.40
2023-04-24T20:26:18.287Z,21.40
2023-04-24T20:29:21.801Z,21.20
2023-04-24T20:32:23.939Z,21.20
2023-04-24T20:35:26.115Z,21.20
2023-04-24T20:38:28.926Z,21.20
2023-04-24T20:41:31.078Z,21.10
2023-04-24T20:44:34.659Z,21.10
2023-04-24T20:47:37.044Z,21.10
2023-04-24T20:50:41.866Z,21.00
2023-04-24T20:53:44.394Z,21.00
2023-04-24T20:56:47.368Z,20.90
2023-04-24T20:59:49.581Z,20.90
2023-04-24T21:02:51.879Z,20.80
2023-04-24T21:05:54.299Z,20.80
2023-04-24T21:08:56.449Z,20.70
2023-04-24T21:11:59.265Z,20.60
2023-04-24T21:15:01.450Z,20.50
2023-04-24T21:18:04.172Z,20.40
2023-04-24T21:21:06.312Z,20.40
2023-04-24T21:24:08.746Z,20.20
2023-04-24T21:27:13.236Z,20.20
2023-04-24T21:30:15.642Z,20.10
2023-04-24T21:33:17.899Z,19.90
2023-04-24T21:36:20.077Z,19.80
2023-04-24T21:39:22.279Z,19.70
2023-04-24T21:42:24.546Z,19.60
2023-04-24T21:45:26.843Z,19.50
2023-04-24T21:48:29.002Z,19.40
2023-04-24T21:51:32.586Z,19.30
2023-04-24T21:54:34.721Z,19.30
2023-04-24T21:57:36.841Z,19.20
2023-04-24T22:00:38.997Z,19.20
2023-04-24T22:03:41.459Z,19.10
2023-04-24T22:06:43.782Z,19.10
2023-04-24T22:09:45.973Z,19.00
2023-04-24T22:12:48.396Z,18.90
2023-04-24T22:15:51.190Z,18.80
2023-04-24T22:18:56.012Z,18.70
2023-04-24T22:21:58.200Z,18.80
2023-04-24T22:25:00.572Z,18.80
2023-04-24T22:28:04.106Z,18.70
2023-04-24T22:31:06.322Z,18.70
2023-04-24T22:34:08.821Z,18.60
2023-04-24T22:37:11.178Z,18.50
2023-04-24T22:40:13.789Z,18.40
2023-04-24T22:43:17.764Z,18.40
2023-04-24T22:46:21.115Z,18.30
2023-04-24T22:49:23.452Z,18.20
2023-04-24T22:52:26.357Z,18.20
2023-04-24T22:55:28.683Z,18.10
2023-04-24T22:58:30.915Z,18.10
2023-04-24T23:01:33.285Z,18.00
2023-04-24T23:04:35.800Z,18.00
2023-04-24T23:07:38.549Z,18.10
2023-04-24T23:10:40.682Z,18.10
2023-04-24T23:13:42.862Z,18.20
2023-04-24T23:16:46.602Z,18.10
2023-04-24T23:19:48.896Z,18.00
2023-04-24T23:22:51.133Z,18.00
2023-04-24T23:25:53.555Z,17.90
2023-04-24T23:28:55.742Z,18.00
2023-04-24T23:32:02.578Z,17.90
2023-04-24T23:35:05.195Z,17.90
2023-04-24T23:38:07.452Z,17.90
2023-04-24T23:41:09.622Z,17.90
2023-04-24T23:44:12.155Z,18.00
2023-04-24T23:47:14.447Z,18.00
2023-04-24T23:50:16.756Z,18.00
2023-04-24T23:53:18.939Z,18.00
2023-04-24T23:56:26.913Z,17.90
2023-04-24T23:59:29.353Z,17.90
